sensor_id;sensor_type;location;lat;lon;timestamp;pressure;altitude;pressure_sealevel;temperature;humidity
3590;BME280;1809;48.470;9.226;2023-07-31T00:00:06;120313.13;;;14.01;100.00
3590;BME280;1809;48.470;9.226;2023-07-31T00:02:34;121349.88;;;14.00;100.00
3590;BME280;1809;48.470;9.226;2023-07-31T00:04:59;121693.47;;;13.98;100.00
3590;BME280;1809;48.470;9.226;2023-07-31T00:07:25;122026.09;;;13.91;100.00
3590;BME280;1809;48.470;9.226;2023-07-31T00:09:50;123064.09;;;13.90;100.00
3590;BME280;1809;48.470;9.226;2023-07-31T00:12:15;123437.25;;;14.04;100.00
3590;BME280;1809;48.470;9.226;2023-07-31T00:14:41;122725.50;;;13.94;100.00
3590;BME280;1809;48.470;9.226;2023-07-31T00:17:06;122730.53;;;13.97;100.00
3590;BME280;1809;48.470;9.226;2023-07-31T00:19:32;122741.63;;;14.02;100.00
3590;BME280;1809;48.470;9.226;2023-07-31T00:21:57;121684.50;;;13.94;100.00
3590;BME280;1809;48.470;9.226;2023-07-31T00:24:22;121675.47;;;13.89;100.00
3590;BME280;1809;48.470;9.226;2023-07-31T00:26:47;122387.81;;;13.99;100.00
3590;BME280;1809;48.470;9.226;2023-07-31T00:29:13;122032.13;;;13.94;100.00
3590;BME280;1809;48.470;9.226;2023-07-31T00:31:38;122040.13;;;13.98;100.00
3590;BME280;1809;48.470;9.226;2023-07-31T00:34:04;121682.47;;;13.93;100.00
3590;BME280;1809;48.470;9.226;2023-07-31T00:36:29;122022.06;;;13.89;100.00
3590;BME280;1809;48.470;9.226;2023-07-31T00:38:55;122016.03;;;13.86;100.00
3590;BME280;1809;48.470;9.226;2023-07-31T00:41:20;122345.56;;;13.78;100.00
3590;BME280;1809;48.470;9.226;2023-07-31T00:43:45;123383.44;;;13.77;100.00
3590;BME280;1809;48.470;9.226;2023-07-31T00:46:11;123398.69;;;13.84;100.00
3590;BME280;1809;48.470;9.226;2023-07-31T00:48:37;122715.38;;;13.89;100.00
3590;BME280;1809;48.470;9.226;2023-07-31T00:51:02;121657.47;;;13.80;100.00
3590;BME280;1809;48.470;9.226;2023-07-31T00:53:28;122691.16;;;13.77;100.00
3590;BME280;1809;48.470;9.226;2023-07-31T00:55:53;123711.81;;;13.68;100.00
3590;BME280;1809;48.470;9.226;2023-07-31T00:58:19;124402.16;;;13.66;100.00
3590;BME280;1809;48.470;9.226;2023-07-31T01:00:44;125463.09;;;13.76;100.00
3590;BME280;1809;48.470;9.226;2023-07-31T01:03:10;124436.94;;;13.83;100.00
3590;BME280;1809;48.470;9.226;2023-07-31T01:05:43;123054.00;;;13.85;100.00
3590;BME280;1809;48.470;9.226;2023-07-31T01:11:15;121661.44;;;13.82;100.00
3590;BME280;1809;48.470;9.226;2023-07-31T01:13:42;121995.00;;;13.76;100.00
3590;BME280;1809;48.470;9.226;2023-07-31T01:16:08;122332.47;;;13.71;100.00
3590;BME280;1809;48.470;9.226;2023-07-31T01:18:33;123720.97;;;13.72;100.00
3590;BME280;1809;48.470;9.226;2023-07-31T01:21:11;123378.34;;;13.74;100.00
3590;BME280;1809;48.470;9.226;2023-07-31T01:24:08;123027.66;;;13.72;100.00
3590;BME280;1809;48.470;9.226;2023-07-31T01:26:39;123381.41;;;13.76;100.00
3590;BME280;1809;48.470;9.226;2023-07-31T01:29:47;123024.63;;;13.71;100.00
3590;BME280;1809;48.470;9.226;2023-07-31T01:32:10;123362.13;;;13.66;100.00
3590;BME280;1809;48.470;9.226;2023-07-31T01:34:37;124036.03;;;13.57;100.00
3590;BME280;1809;48.470;9.226;2023-07-31T01:37:03;125062.69;;;13.50;100.00
3590;BME280;1809;48.470;9.226;2023-07-31T01:39:28;126814.34;;;13.59;100.00
3590;BME280;1809;48.470;9.226;2023-07-31T01:41:54;126796.59;;;13.50;100.00
3590;BME280;1809;48.470;9.226;2023-07-31T01:44:19;127143.50;;;13.50;100.00
3590;BME280;1809;48.470;9.226;2023-07-31T01:46:44;127822.59;;;13.43;100.00
3590;BME280;1809;48.470;9.226;2023-07-31T01:49:10;128863.53;;;13.43;100.00
3590;BME280;1809;48.470;9.226;2023-07-31T01:51:35;129206.34;;;13.41;100.00
3590;BME280;1809;48.470;9.226;2023-07-31T01:54:01;129896.22;;;13.39;100.00
3590;BME280;1809;48.470;9.226;2023-07-31T01:56:27;130241.22;;;13.38;100.00
3590;BME280;1809;48.470;9.226;2023-07-31T01:58:52;130618.50;;;13.52;100.00
3590;BME280;1809;48.470;9.226;2023-07-31T02:01:17;128872.06;;;13.47;100.00
3590;BME280;1809;48.470;9.226;2023-07-31T02:03:43;128523.94;;;13.46;100.00
3590;BME280;1809;48.470;9.226;2023-07-31T02:06:08;128518.66;;;13.44;100.00
3590;BME280;1809;48.470;9.226;2023-07-31T02:08:33;128179.06;;;13.48;100.00
3590;BME280;1809;48.470;9.226;2023-07-31T02:10:59;127833.16;;;13.48;100.00
3590;BME280;1809;48.470;9.226;2023-07-31T02:13:24;127128.81;;;13.43;100.00
3590;BME280;1809;48.470;9.226;2023-07-31T02:15:50;126779.88;;;13.42;100.00
3590;BME280;1809;48.470;9.226;2023-07-31T02:18:15;127103.69;;;13.31;100.00
3590;BME280;1809;48.470;9.226;2023-07-31T02:20:41;128490.06;;;13.30;100.00
3590;BME280;1809;48.470;9.226;2023-07-31T02:23:06;129210.59;;;13.43;100.00
3590;BME280;1809;48.470;9.226;2023-07-31T02:25:31;128510.19;;;13.40;100.00
3590;BME280;1809;48.470;9.226;2023-07-31T02:27:57;128169.56;;;13.43;100.00
3590;BME280;1809;48.470;9.226;2023-07-31T02:30:22;127805.78;;;13.35;100.00
3590;BME280;1809;48.470;9.226;2023-07-31T02:32:47;128481.59;;;13.26;100.00
3590;BME280;1809;48.470;9.226;2023-07-31T02:35:13;129532.06;;;13.31;100.00
3590;BME280;1809;48.470;9.226;2023-07-31T02:37:41;130228.34;;;13.32;100.00
3590;BME280;1809;48.470;9.226;2023-07-31T02:40:07;130207.94;;;13.22;100.00
3590;BME280;1809;48.470;9.226;2023-07-31T02:42:32;131276.28;;;13.35;100.00
3590;BME280;1809;48.470;9.226;2023-07-31T02:44:57;130580.84;;;13.34;100.00
3590;BME280;1809;48.470;9.226;2023-07-31T02:47:23;130228.34;;;13.32;100.00
3590;BME280;1809;48.470;9.226;2023-07-31T02:49:48;130237.97;;;13.36;100.00
3590;BME280;1809;48.470;9.226;2023-07-31T02:52:13;129881.25;;;13.32;100.00
3590;BME280;1809;48.470;9.226;2023-07-31T02:54:38;129865.19;;;13.24;100.00
3590;BME280;1809;48.470;9.226;2023-07-31T02:57:04;130538.84;;;13.15;100.00
3590;BME280;1809;48.470;9.226;2023-07-31T02:59:30;131933.78;;;13.18;100.00
3590;BME280;1809;48.470;9.226;2023-07-31T03:01:55;132650.13;;;13.28;100.00
3590;BME280;1809;48.470;9.226;2023-07-31T03:04:21;131599.63;;;13.24;100.00
3590;BME280;1809;48.470;9.226;2023-07-31T03:06:46;131276.28;;;13.35;100.00
3590;BME280;1809;48.470;9.226;2023-07-31T03:09:11;129542.72;;;13.36;100.00
3590;BME280;1809;48.470;9.226;2023-07-31T03:11:37;128156.88;;;13.37;100.00
3590;BME280;1809;48.470;9.226;2023-07-31T03:14:02;127469.41;;;13.40;100.00
3590;BME280;1809;48.470;9.226;2023-07-31T03:16:27;125733.38;;;13.39;100.00
3590;BME280;1809;48.470;9.226;2023-07-31T03:18:54;125023.56;;;13.31;100.00
3590;BME280;1809;48.470;9.226;2023-07-31T03:21:19;124703.69;;;13.44;100.00
3590;BME280;1809;48.470;9.226;2023-07-31T03:23:44;123998.28;;;13.38;100.00
3590;BME280;1809;48.470;9.226;2023-07-31T03:26:10;123320.50;;;13.45;100.00
3590;BME280;1809;48.470;9.226;2023-07-31T03:28:36;121943.81;;;13.50;100.00
3590;BME280;1809;48.470;9.226;2023-07-31T03:31:01;120892.88;;;13.44;100.00
3590;BME280;1809;48.470;9.226;2023-07-31T03:33:26;120886.91;;;13.41;100.00
3590;BME280;1809;48.470;9.226;2023-07-31T03:35:52;121236.13;;;13.42;100.00
3590;BME280;1809;48.470;9.226;2023-07-31T03:38:18;120872.97;;;13.34;100.00
3590;BME280;1809;48.470;9.226;2023-07-31T03:40:43;121551.41;;;13.27;100.00
3590;BME280;1809;48.470;9.226;2023-07-31T03:43:08;122582.19;;;13.23;100.00
3590;BME280;1809;48.470;9.226;2023-07-31T03:45:34;123619.19;;;13.22;100.00
3590;BME280;1809;48.470;9.226;2023-07-31T03:47:59;124660.59;;;13.23;100.00
3590;BME280;1809;48.470;9.226;2023-07-31T03:50:25;126067.63;;;13.33;100.00
3590;BME280;1809;48.470;9.226;2023-07-31T03:52:50;126764.25;;;13.34;100.00
3590;BME280;1809;48.470;9.226;2023-07-31T03:55:16;127111.03;;;13.34;100.00
3590;BME280;1809;48.470;9.226;2023-07-31T03:57:41;127820.50;;;13.42;100.00
3590;BME280;1809;48.470;9.226;2023-07-31T04:00:07;127122.53;;;13.40;100.00
3590;BME280;1809;48.470;9.226;2023-07-31T04:02:32;127479.88;;;13.45;100.00
3590;BME280;1809;48.470;9.226;2023-07-31T04:04:58;127476.75;;;13.43;100.00
3590;BME280;1809;48.470;9.226;2023-07-31T04:07:23;127822.59;;;13.43;100.00
3590;BME280;1809;48.470;9.226;2023-07-31T04:09:48;127820.50;;;13.42;100.00
3590;BME280;1809;48.470;9.226;2023-07-31T04:12:14;128178.00;;;13.47;100.00
3590;BME280;1809;48.470;9.226;2023-07-31T04:14:39;128535.59;;;13.52;100.00
3590;BME280;1809;48.470;9.226;2023-07-31T04:17:04;128201.22;;;13.58;100.00
3590;BME280;1809;48.470;9.226;2023-07-31T04:19:30;127180.13;;;13.68;100.00
3590;BME280;1809;48.470;9.226;2023-07-31T04:21:58;126503.88;;;13.76;100.00
3590;BME280;1809;48.470;9.226;2023-07-31T04:24:23;124786.88;;;13.85;100.00
3590;BME280;1809;48.470;9.226;2023-07-31T04:26:53;123410.84;;;13.90;100.00
3590;BME280;1809;48.470;9.226;2023-07-31T04:29:19;122745.66;;;14.05;100.00
3590;BME280;1809;48.470;9.226;2023-07-31T04:31:44;122480.47;;;14.45;100.00
3590;BME280;1809;48.470;9.226;2023-07-31T04:34:09;121190.41;;;14.95;100.00
3590;BME280;1809;48.470;9.226;2023-07-31T04:36:35;110852.06;;;15.28;100.00
3590;BME280;1809;48.470;9.226;2023-07-31T04:39:01;97083.41;;;15.64;100.00
3590;BME280;1809;48.470;9.226;2023-07-31T04:41:26;74060.78;;;15.83;100.00
3590;BME280;1809;48.470;9.226;2023-07-31T04:43:52;44026.06;;;15.98;100.00
3590;BME280;1809;48.470;9.226;2023-07-31T04:46:17;20306.53;;;15.86;100.00
3590;BME280;1809;48.470;9.226;2023-07-31T04:48:43;2130.09;;;15.89;100.00
3590;BME280;1809;48.470;9.226;2023-07-31T04:51:08;-3569.94;;;15.64;100.00
3590;BME280;1809;48.470;9.226;2023-07-31T04:53:37;10865.88;;;15.66;100.00
3590;BME280;1809;48.470;9.226;2023-07-31T04:56:02;16588.56;;;15.58;100.00
3590;BME280;1809;48.470;9.226;2023-07-31T04:58:28;24358.19;;;15.83;100.00
3590;BME280;1809;48.470;9.226;2023-07-31T05:00:53;21990.94;;;15.76;100.00
3590;BME280;1809;48.470;9.226;2023-07-31T05:03:18;26381.09;;;15.71;100.00
3590;BME280;1809;48.470;9.226;2023-07-31T05:05:43;34840.81;;;15.66;100.00
3590;BME280;1809;48.470;9.226;2023-07-31T05:08:09;40940.53;;;15.57;100.00
3590;BME280;1809;48.470;9.226;2023-07-31T05:10:34;48406.03;;;15.43;100.00
3590;BME280;1809;48.470;9.226;2023-07-31T05:12:59;58628.88;;;15.46;100.00
3590;BME280;1809;48.470;9.226;2023-07-31T05:15:25;61023.44;;;15.52;100.00
3590;BME280;1809;48.470;9.226;2023-07-31T05:17:50;62405.69;;;15.68;100.00
3590;BME280;1809;48.470;9.226;2023-07-31T05:20:16;62085.13;;;15.89;100.00
3590;BME280;1809;48.470;9.226;2023-07-31T05:22:41;51855.94;;;15.99;100.00
3590;BME280;1809;48.470;9.226;2023-07-31T05:25:07;40300.13;;;16.17;100.00
3590;BME280;1809;48.470;9.226;2023-07-31T05:27:32;28771.00;;;16.21;100.00
3590;BME280;1809;48.470;9.226;2023-07-31T05:29:58;19312.53;;;16.48;100.00
3590;BME280;1809;48.470;9.226;2023-07-31T05:32:23;13239.03;;;16.51;100.00
3590;BME280;1809;48.470;9.226;2023-07-31T05:34:51;-555.81;;;16.62;100.00
3590;BME280;1809;48.470;9.226;2023-07-31T05:37:17;-8610.66;;;16.98;100.00
3590;BME280;1809;48.470;9.226;2023-07-31T05:39:43;-15992.03;;;17.38;100.00
3590;BME280;1809;48.470;9.226;2023-07-31T05:42:08;-16650.34;;;17.29;100.00
3590;BME280;1809;48.470;9.226;2023-07-31T05:44:33;-16660.84;;;17.67;100.00
3590;BME280;1809;48.470;9.226;2023-07-31T05:46:59;-16652.59;;;17.37;100.00
3590;BME280;1809;48.470;9.226;2023-07-31T05:49:24;-16656.78;;;17.52;100.00
3590;BME280;1809;48.470;9.226;2023-07-31T05:51:49;-16661.97;;;17.71;100.00
3590;BME280;1809;48.470;9.226;2023-07-31T05:54:15;-16661.97;;;17.71;100.00
3590;BME280;1809;48.470;9.226;2023-07-31T05:56:40;-16658.06;;;17.57;100.00
3590;BME280;1809;48.470;9.226;2023-07-31T05:59:05;-16663.94;;;17.78;100.00
3590;BME280;1809;48.470;9.226;2023-07-31T06:01:30;-16661.56;;;17.69;100.00
3590;BME280;1809;48.470;9.226;2023-07-31T06:03:56;-16666.31;;;17.87;100.00
3590;BME280;1809;48.470;9.226;2023-07-31T06:06:21;-16668.13;;;17.93;100.00
3590;BME280;1809;48.470;9.226;2023-07-31T06:08:47;-16677.50;;;18.27;100.00
3590;BME280;1809;48.470;9.226;2023-07-31T06:11:12;-16669.53;;;17.98;100.00
3590;BME280;1809;48.470;9.226;2023-07-31T06:13:37;-16670.38;;;18.01;100.00
3590;BME280;1809;48.470;9.226;2023-07-31T06:16:03;-16670.94;;;18.03;100.00
3590;BME280;1809;48.470;9.226;2023-07-31T06:18:32;-16664.63;;;17.81;100.00
3590;BME280;1809;48.470;9.226;2023-07-31T06:20:57;-16665.34;;;17.83;100.00
3590;BME280;1809;48.470;9.226;2023-07-31T06:23:22;-16668.00;;;17.93;100.00
3590;BME280;1809;48.470;9.226;2023-07-31T06:25:48;-16665.75;;;17.85;100.00
3590;BME280;1809;48.470;9.226;2023-07-31T06:28:13;-16666.31;;;17.87;100.00
3590;BME280;1809;48.470;9.226;2023-07-31T06:30:39;-16660.28;;;17.65;100.00
3590;BME280;1809;48.470;9.226;2023-07-31T06:33:04;-16668.00;;;17.93;100.00
3590;BME280;1809;48.470;9.226;2023-07-31T06:35:29;-16670.50;;;18.02;100.00
3590;BME280;1809;48.470;9.226;2023-07-31T06:37:55;-16670.94;;;18.03;100.00
3590;BME280;1809;48.470;9.226;2023-07-31T06:40:22;-16677.66;;;18.27;100.00
3590;BME280;1809;48.470;9.226;2023-07-31T06:42:47;-16689.41;;;18.70;100.00
3590;BME280;1809;48.470;9.226;2023-07-31T06:45:12;-16712.22;;;19.52;100.00
3590;BME280;1809;48.470;9.226;2023-07-31T06:47:38;-16723.25;;;19.92;100.00
3590;BME280;1809;48.470;9.226;2023-07-31T06:50:04;-16744.78;;;20.70;100.00
3590;BME280;1809;48.470;9.226;2023-07-31T06:52:29;-16781.25;;;22.02;100.00
3590;BME280;1809;48.470;9.226;2023-07-31T06:55:02;-16794.38;;;22.49;100.00
3590;BME280;1809;48.470;9.226;2023-07-31T06:57:28;-16813.06;;;23.17;100.00
3590;BME280;1809;48.470;9.226;2023-07-31T06:59:54;-16811.53;;;23.11;100.00
3590;BME280;1809;48.470;9.226;2023-07-31T07:02:19;-16814.47;;;23.22;100.00
3590;BME280;1809;48.470;9.226;2023-07-31T07:04:44;-16814.06;;;23.20;100.00
3590;BME280;1809;48.470;9.226;2023-07-31T07:07:10;-16822.72;;;23.51;100.00
3590;BME280;1809;48.470;9.226;2023-07-31T07:09:35;-16821.31;;;23.46;100.00
3590;BME280;1809;48.470;9.226;2023-07-31T07:12:00;-16819.78;;;23.41;100.00
3590;BME280;1809;48.470;9.226;2023-07-31T07:14:26;-16808.88;;;23.01;100.00
3590;BME280;1809;48.470;9.226;2023-07-31T07:16:51;-16802.47;;;22.78;100.00
3590;BME280;1809;48.470;9.226;2023-07-31T07:19:17;-16808.47;;;23.00;100.00
3590;BME280;1809;48.470;9.226;2023-07-31T07:21:42;-16824.66;;;23.59;100.00
3590;BME280;1809;48.470;9.226;2023-07-31T07:24:07;-16836.38;;;24.01;100.00
3590;BME280;1809;48.470;9.226;2023-07-31T07:26:33;-16832.75;;;23.88;100.00
3590;BME280;1809;48.470;9.226;2023-07-31T07:28:58;-16833.03;;;23.89;100.00
3590;BME280;1809;48.470;9.226;2023-07-31T07:31:23;-16838.19;;;24.07;100.00
3590;BME280;1809;48.470;9.226;2023-07-31T07:33:49;-16846.97;;;24.39;100.00
3590;BME280;1809;48.470;9.226;2023-07-31T07:36:14;-16834.69;;;23.95;100.00
3590;BME280;1809;48.470;9.226;2023-07-31T07:38:39;-16848.94;;;24.46;100.00
3590;BME280;1809;48.470;9.226;2023-07-31T07:41:06;-16864.13;;;25.01;100.00
3590;BME280;1809;48.470;9.226;2023-07-31T07:43:31;-16882.25;;;25.67;100.00
3590;BME280;1809;48.470;9.226;2023-07-31T07:45:56;-16867.34;;;25.13;100.00
3590;BME280;1809;48.470;9.226;2023-07-31T07:48:22;-16868.44;;;25.17;100.00
3590;BME280;1809;48.470;9.226;2023-07-31T07:50:48;-16858.69;;;24.82;100.00
3590;BME280;1809;48.470;9.226;2023-07-31T07:53:14;-16856.47;;;24.74;100.00
3590;BME280;1809;48.470;9.226;2023-07-31T07:55:39;-16855.19;;;24.69;100.00
3590;BME280;1809;48.470;9.226;2023-07-31T07:58:04;-16869.16;;;25.20;100.00
3590;BME280;1809;48.470;9.226;2023-07-31T08:00:30;-16860.66;;;24.89;100.00
3590;BME280;1809;48.470;9.226;2023-07-31T08:02:55;-16852.28;;;24.58;100.00
3590;BME280;1809;48.470;9.226;2023-07-31T08:05:22;-16831.06;;;23.82;100.00
3590;BME280;1809;48.470;9.226;2023-07-31T08:07:47;-16814.75;;;23.23;100.00
3590;BME280;1809;48.470;9.226;2023-07-31T08:10:13;-16811.53;;;23.11;100.00
3590;BME280;1809;48.470;9.226;2023-07-31T08:12:38;-16809.03;;;23.02;100.00
3590;BME280;1809;48.470;9.226;2023-07-31T08:15:04;-16811.81;;;23.12;100.00
3590;BME280;1809;48.470;9.226;2023-07-31T08:17:29;-16818.09;;;23.35;100.00
3590;BME280;1809;48.470;9.226;2023-07-31T08:19:54;-16810.00;;;23.06;100.00
3590;BME280;1809;48.470;9.226;2023-07-31T08:22:22;-16797.56;;;22.61;100.00
3590;BME280;1809;48.470;9.226;2023-07-31T08:24:47;-16805.97;;;22.91;100.00
3590;BME280;1809;48.470;9.226;2023-07-31T08:27:12;-16794.22;;;22.48;100.00
3590;BME280;1809;48.470;9.226;2023-07-31T08:29:38;-16793.38;;;22.45;100.00
3590;BME280;1809;48.470;9.226;2023-07-31T08:32:03;-16785.84;;;22.18;100.00
3590;BME280;1809;48.470;9.226;2023-07-31T08:34:29;-16792.56;;;22.42;100.00
3590;BME280;1809;48.470;9.226;2023-07-31T08:36:54;-16795.78;;;22.54;100.00
3590;BME280;1809;48.470;9.226;2023-07-31T08:39:19;-16797.84;;;22.62;100.00
3590;BME280;1809;48.470;9.226;2023-07-31T08:41:45;-16798.56;;;22.64;100.00
3590;BME280;1809;48.470;9.226;2023-07-31T08:44:12;-16794.22;;;22.48;100.00
3590;BME280;1809;48.470;9.226;2023-07-31T08:46:39;-16796.75;;;22.58;100.00
3590;BME280;1809;48.470;9.226;2023-07-31T08:49:05;-16801.78;;;22.76;100.00
3590;BME280;1809;48.470;9.226;2023-07-31T08:51:34;-16795.34;;;22.52;100.00
3590;BME280;1809;48.470;9.226;2023-07-31T08:53:59;-16798.00;;;22.62;100.00
3590;BME280;1809;48.470;9.226;2023-07-31T08:56:25;-16801.78;;;22.76;100.00
3590;BME280;1809;48.470;9.226;2023-07-31T08:58:52;-16803.44;;;22.82;100.00
3590;BME280;1809;48.470;9.226;2023-07-31T09:01:19;-16809.03;;;23.02;100.00
3590;BME280;1809;48.470;9.226;2023-07-31T09:03:45;-16812.94;;;23.16;100.00
3590;BME280;1809;48.470;9.226;2023-07-31T09:06:12;-16812.66;;;23.15;100.00
3590;BME280;1809;48.470;9.226;2023-07-31T09:08:41;-16816.00;;;23.27;100.00
3590;BME280;1809;48.470;9.226;2023-07-31T09:11:07;-16827.16;;;23.68;100.00
3590;BME280;1809;48.470;9.226;2023-07-31T09:13:33;-16822.72;;;23.51;100.00
3590;BME280;1809;48.470;9.226;2023-07-31T09:15:58;-16832.47;;;23.87;100.00
3590;BME280;1809;48.470;9.226;2023-07-31T09:18:24;-16829.97;;;23.78;100.00
3590;BME280;1809;48.470;9.226;2023-07-31T09:23:40;-16821.59;;;23.47;100.00
3590;BME280;1809;48.470;9.226;2023-07-31T09:26:05;-16827.59;;;23.69;100.00
3590;BME280;1809;48.470;9.226;2023-07-31T09:28:31;-16829.41;;;23.76;100.00
3590;BME280;1809;48.470;9.226;2023-07-31T09:30:56;-16832.88;;;23.88;100.00
3590;BME280;1809;48.470;9.226;2023-07-31T09:33:21;-16843.91;;;24.28;100.00
3590;BME280;1809;48.470;9.226;2023-07-31T09:35:47;-16856.75;;;24.75;100.00
3590;BME280;1809;48.470;9.226;2023-07-31T09:38:16;-16854.50;;;24.67;100.00
3590;BME280;1809;48.470;9.226;2023-07-31T09:40:42;-16847.53;;;24.41;100.00
3590;BME280;1809;48.470;9.226;2023-07-31T09:43:12;-16836.09;;;24.00;100.00
3590;BME280;1809;48.470;9.226;2023-07-31T09:45:42;-16829.69;;;23.77;100.00
3590;BME280;1809;48.470;9.226;2023-07-31T09:48:09;-16828.28;;;23.72;100.00
3590;BME280;1809;48.470;9.226;2023-07-31T09:50:37;-16837.91;;;24.06;100.00
3590;BME280;1809;48.470;9.226;2023-07-31T09:53:03;-16834.44;;;23.94;100.00
3590;BME280;1809;48.470;9.226;2023-07-31T09:55:29;-16833.31;;;23.90;100.00
3590;BME280;1809;48.470;9.226;2023-07-31T09:57:57;-16830.53;;;23.80;100.00
3590;BME280;1809;48.470;9.226;2023-07-31T10:00:23;-16820.47;;;23.43;100.00
3590;BME280;1809;48.470;9.226;2023-07-31T10:02:50;-16824.25;;;23.57;100.00
3590;BME280;1809;48.470;9.226;2023-07-31T10:05:16;-16829.81;;;23.77;100.00
3590;BME280;1809;48.470;9.226;2023-07-31T10:07:45;-16838.31;;;24.08;100.00
3590;BME280;1809;48.470;9.226;2023-07-31T10:10:16;-16842.25;;;24.22;100.00
3590;BME280;1809;48.470;9.226;2023-07-31T10:12:41;-16852.41;;;24.59;100.00
3590;BME280;1809;48.470;9.226;2023-07-31T10:15:09;-16853.81;;;24.64;100.00
3590;BME280;1809;48.470;9.226;2023-07-31T10:17:35;-16845.59;;;24.34;100.00
3590;BME280;1809;48.470;9.226;2023-07-31T10:20:02;-16831.91;;;23.85;100.00
3590;BME280;1809;48.470;9.226;2023-07-31T10:22:30;-16827.72;;;23.70;100.00
3590;BME280;1809;48.470;9.226;2023-07-31T10:24:58;-16830.25;;;23.79;100.00
3590;BME280;1809;48.470;9.226;2023-07-31T10:27:24;-16834.00;;;23.92;100.00
3590;BME280;1809;48.470;9.226;2023-07-31T10:29:50;-16833.03;;;23.89;100.00
3590;BME280;1809;48.470;9.226;2023-07-31T10:32:17;-16834.16;;;23.93;100.00
3590;BME280;1809;48.470;9.226;2023-07-31T10:34:44;-16841.69;;;24.20;100.00
3590;BME280;1809;48.470;9.226;2023-07-31T10:37:23;-16846.41;;;24.37;100.00
3590;BME280;1809;48.470;9.226;2023-07-31T10:40:02;-16846.28;;;24.37;100.00
3590;BME280;1809;48.470;9.226;2023-07-31T10:42:37;-16849.34;;;24.48;100.00
3590;BME280;1809;48.470;9.226;2023-07-31T10:45:05;-16840.44;;;24.16;100.00
3590;BME280;1809;48.470;9.226;2023-07-31T10:47:37;-16834.97;;;23.96;100.00
3590;BME280;1809;48.470;9.226;2023-07-31T10:50:21;-16828.00;;;23.71;100.00
3590;BME280;1809;48.470;9.226;2023-07-31T10:52:50;-16834.56;;;23.94;100.00
3590;BME280;1809;48.470;9.226;2023-07-31T10:55:24;-16834.16;;;23.93;100.00
3590;BME280;1809;48.470;9.226;2023-07-31T10:57:50;-16837.34;;;24.04;100.00
3590;BME280;1809;48.470;9.226;2023-07-31T11:00:26;-16844.75;;;24.31;100.00
3590;BME280;1809;48.470;9.226;2023-07-31T11:03:08;-16844.75;;;24.31;100.00
3590;BME280;1809;48.470;9.226;2023-07-31T11:08:22;-16854.50;;;24.67;100.00
3590;BME280;1809;48.470;9.226;2023-07-31T11:11:10;-16855.63;;;24.71;100.00
3590;BME280;1809;48.470;9.226;2023-07-31T11:13:52;-16846.69;;;24.38;100.00
3590;BME280;1809;48.470;9.226;2023-07-31T11:16:23;-16846.69;;;24.38;100.00
3590;BME280;1809;48.470;9.226;2023-07-31T11:18:49;-16852.00;;;24.57;100.00
3590;BME280;1809;48.470;9.226;2023-07-31T11:21:21;-16863.44;;;24.99;100.00
3590;BME280;1809;48.470;9.226;2023-07-31T11:23:51;-16873.19;;;25.34;100.00
3590;BME280;1809;48.470;9.226;2023-07-31T11:26:18;-16876.25;;;25.45;100.00
3590;BME280;1809;48.470;9.226;2023-07-31T11:28:46;-16893.66;;;26.08;100.00
3590;BME280;1809;48.470;9.226;2023-07-31T11:31:12;-16896.03;;;26.17;100.00
3590;BME280;1809;48.470;9.226;2023-07-31T11:33:37;-16910.81;;;26.70;100.00
3590;BME280;1809;48.470;9.226;2023-07-31T11:36:03;-16909.69;;;26.66;100.00
3590;BME280;1809;48.470;9.226;2023-07-31T11:38:30;-16914.44;;;26.84;100.00
3590;BME280;1809;48.470;9.226;2023-07-31T11:40:58;-16919.28;;;27.01;100.00
3590;BME280;1809;48.470;9.226;2023-07-31T11:43:24;-16918.59;;;26.99;100.00
3590;BME280;1809;48.470;9.226;2023-07-31T11:45:51;-16909.41;;;26.65;100.00
3590;BME280;1809;48.470;9.226;2023-07-31T11:48:27;-16903.69;;;26.45;100.00
3590;BME280;1809;48.470;9.226;2023-07-31T11:50:57;-16911.34;;;26.72;100.00
3590;BME280;1809;48.470;9.226;2023-07-31T11:53:33;-16912.47;;;26.77;100.00
3590;BME280;1809;48.470;9.226;2023-07-31T11:56:01;-16923.59;;;27.17;100.00
3590;BME280;1809;48.470;9.226;2023-07-31T11:58:30;-16924.59;;;27.20;100.00
3590;BME280;1809;48.470;9.226;2023-07-31T12:00:56;-16930.00;;;27.40;100.00
3590;BME280;1809;48.470;9.226;2023-07-31T12:03:24;-16928.91;;;27.36;100.00
3590;BME280;1809;48.470;9.226;2023-07-31T12:05:50;-16930.28;;;27.41;100.00
3590;BME280;1809;48.470;9.226;2023-07-31T12:08:15;-16921.81;;;27.10;100.00
3590;BME280;1809;48.470;9.226;2023-07-31T12:10:41;-16910.81;;;26.70;100.00
3590;BME280;1809;48.470;9.226;2023-07-31T12:13:11;-16907.72;;;26.59;100.00
3590;BME280;1809;48.470;9.226;2023-07-31T12:15:41;-16900.06;;;26.32;100.00
3590;BME280;1809;48.470;9.226;2023-07-31T12:18:15;-16891.84;;;26.02;100.00
3590;BME280;1809;48.470;9.226;2023-07-31T12:20:42;-16891.31;;;26.00;100.00
3590;BME280;1809;48.470;9.226;2023-07-31T12:23:25;-16894.38;;;26.11;100.00
3590;BME280;1809;48.470;9.226;2023-07-31T12:26:10;-16890.75;;;25.98;100.00
3590;BME280;1809;48.470;9.226;2023-07-31T12:28:46;-16889.78;;;25.94;100.00
3590;BME280;1809;48.470;9.226;2023-07-31T12:31:14;-16886.72;;;25.83;100.00
3590;BME280;1809;48.470;9.226;2023-07-31T12:33:41;-16886.84;;;25.84;100.00
3590;BME280;1809;48.470;9.226;2023-07-31T12:36:14;-16891.84;;;26.02;100.00
3590;BME280;1809;48.470;9.226;2023-07-31T12:38:40;-16878.22;;;25.52;100.00
3590;BME280;1809;48.470;9.226;2023-07-31T12:41:06;-16884.63;;;25.76;100.00
3590;BME280;1809;48.470;9.226;2023-07-31T12:43:32;-16886.28;;;25.82;100.00
3590;BME280;1809;48.470;9.226;2023-07-31T12:45:58;-16893.53;;;26.08;100.00
3590;BME280;1809;48.470;9.226;2023-07-31T12:48:24;-16897.00;;;26.21;100.00
3590;BME280;1809;48.470;9.226;2023-07-31T12:50:49;-16909.97;;;26.67;100.00
3590;BME280;1809;48.470;9.226;2023-07-31T12:53:15;-16897.72;;;26.23;100.00
3590;BME280;1809;48.470;9.226;2023-07-31T12:55:40;-16882.09;;;25.66;100.00
3590;BME280;1809;48.470;9.226;2023-07-31T12:58:06;-16873.75;;;25.36;100.00
3590;BME280;1809;48.470;9.226;2023-07-31T13:00:31;-16877.09;;;25.48;100.00
3590;BME280;1809;48.470;9.226;2023-07-31T13:02:57;-16876.94;;;25.48;100.00
3590;BME280;1809;48.470;9.226;2023-07-31T13:05:22;-16891.84;;;26.02;100.00